createdAt,value
2017-09-17T03:32:16.294Z,3.97
2017-09-17T03:34:43.868Z,4.03
2017-09-17T03:37:12.209Z,4.20
2017-09-17T03:39:39.821Z,3.85
2017-09-17T03:42:07.397Z,3.15
2017-09-17T03:44:34.976Z,3.30
2017-09-17T03:47:02.598Z,3.05
2017-09-17T03:49:30.179Z,3.62
2017-09-17T03:51:57.750Z,3.17
2017-09-17T03:54:25.370Z,4.60
2017-09-17T03:56:52.942Z,4.40
2017-09-17T03:59:20.514Z,4.50
2017-09-17T04:01:48.335Z,5.10
2017-09-17T04:04:16.677Z,5.00
2017-09-17T04:06:44.253Z,7.60
2017-09-17T04:09:12.027Z,6.78
2017-09-17T04:11:40.378Z,7.57
2017-09-17T04:14:07.953Z,3.67
2017-09-17T04:16:35.549Z,4.05
2017-09-17T04:19:03.122Z,3.50
2017-09-17T04:21:30.942Z,2.90
2017-09-17T04:23:59.282Z,2.90
2017-09-17T04:26:26.858Z,2.80
2017-09-17T04:28:54.509Z,3.40
2017-09-17T04:31:22.078Z,3.83
2017-09-17T04:33:49.649Z,4.70
2017-09-17T04:36:17.245Z,4.28
2017-09-17T04:38:44.826Z,3.33
2017-09-17T04:41:12.537Z,2.70
2017-09-17T04:43:40.877Z,2.40
2017-09-17T04:46:08.458Z,1.90
2017-09-17T04:48:36.074Z,1.83
2017-09-17T04:51:03.650Z,3.28
2017-09-17T04:53:31.241Z,11.07
2017-09-17T04:55:59.826Z,9.40
2017-09-17T04:58:28.170Z,8.55
2017-09-17T05:00:56.514Z,6.55
2017-09-17T05:03:24.345Z,10.30
2017-09-17T05:05:52.690Z,13.27
2017-09-17T05:08:20.270Z,11.98
2017-09-17T05:10:47.898Z,6.50
2017-09-17T05:13:15.473Z,4.90
2017-09-17T05:15:43.048Z,4.60
2017-09-17T05:18:10.654Z,3.00
2017-09-17T05:20:38.234Z,2.83
2017-09-17T05:23:06.603Z,2.62
2017-09-17T05:25:34.181Z,5.18
2017-09-17T05:28:01.754Z,4.15
2017-09-17T05:30:29.355Z,2.25
2017-09-17T05:32:56.930Z,2.03
2017-09-17T05:35:24.532Z,2.80
2017-09-17T05:37:52.118Z,3.10
2017-09-17T05:40:19.715Z,3.25
2017-09-17T05:42:47.315Z,3.83
2017-09-17T05:45:15.675Z,3.90
2017-09-17T05:47:43.259Z,4.03
2017-09-17T05:50:11.809Z,5.10
2017-09-17T05:52:39.382Z,5.47
2017-09-17T05:55:06.962Z,5.30
2017-09-17T05:57:35.430Z,5.97
2017-09-17T06:00:03.814Z,6.10
2017-09-17T06:02:32.150Z,6.62
2017-09-17T06:04:59.741Z,6.40
2017-09-17T06:07:28.117Z,5.90
2017-09-17T06:09:56.458Z,5.80
2017-09-17T06:12:24.183Z,5.60
2017-09-17T06:14:51.822Z,5.22
2017-09-17T06:17:20.161Z,5.85
2017-09-17T06:19:47.958Z,5.70
2017-09-17T06:22:16.306Z,4.55
2017-09-17T06:24:43.893Z,5.55
2017-09-17T06:27:12.378Z,5.78
2017-09-17T06:29:40.726Z,5.65
2017-09-17T06:32:08.413Z,6.70
2017-09-17T06:34:36.835Z,6.72
2017-09-17T06:37:04.453Z,8.35
2017-09-17T06:39:32.803Z,7.12
2017-09-17T06:42:00.397Z,6.43
2017-09-17T06:44:28.735Z,6.78
2017-09-17T06:46:56.362Z,7.03
2017-09-17T06:49:23.933Z,6.82
2017-09-17T06:51:51.505Z,7.22
2017-09-17T06:54:19.137Z,6.18
2017-09-17T06:56:46.717Z,6.50
2017-09-17T06:59:14.298Z,6.80
2017-09-17T07:01:41.904Z,5.28
2017-09-17T07:04:09.534Z,6.18
2017-09-17T07:06:37.873Z,6.37
2017-09-17T07:09:05.474Z,5.65
2017-09-17T07:11:33.813Z,5.50
2017-09-17T07:14:02.434Z,5.05
2017-09-17T07:16:30.773Z,4.00
2017-09-17T07:18:58.358Z,5.30
2017-09-17T07:21:26.733Z,4.18
2017-09-17T07:23:54.358Z,4.78
2017-09-17T07:26:22.734Z,4.72
2017-09-17T07:28:50.325Z,4.15
2017-09-17T07:31:18.062Z,4.60
2017-09-17T07:33:45.645Z,5.37
2017-09-17T07:36:13.997Z,5.40
2017-09-17T07:38:41.750Z,6.45
2017-09-17T07:41:09.324Z,5.90
2017-09-17T07:43:36.945Z,5.90
2017-09-17T07:46:04.522Z,5.37
2017-09-17T07:48:32.098Z,5.60
2017-09-17T07:50:59.706Z,6.28
2017-09-17T07:53:27.294Z,7.32
2017-09-17T07:55:54.902Z,8.02
2017-09-17T07:58:23.247Z,8.43
2017-09-17T08:00:50.830Z,6.28
2017-09-17T08:03:18.478Z,5.70
2017-09-17T08:05:46.054Z,6.53
2017-09-17T08:08:13.629Z,5.03
2017-09-17T08:10:41.993Z,4.40
2017-09-17T08:13:10.343Z,5.72
2017-09-17T08:15:37.929Z,4.00
2017-09-17T08:18:06.297Z,4.30
2017-09-17T08:20:34.069Z,3.95
2017-09-17T08:23:02.415Z,4.10
2017-09-17T08:25:29.998Z,4.43
2017-09-17T08:27:57.649Z,4.10
2017-09-17T08:30:25.252Z,4.25
2017-09-17T08:32:52.834Z,4.18
2017-09-17T08:35:20.437Z,4.72
2017-09-17T08:37:48.019Z,4.78
2017-09-17T08:40:15.646Z,4.05
2017-09-17T08:42:43.230Z,4.15
2017-09-17T08:45:11.573Z,3.50
2017-09-17T08:47:39.179Z,3.47
2017-09-17T08:50:11.730Z,4.80
2017-09-17T08:52:40.139Z,5.68
2017-09-17T08:55:07.722Z,5.22
2017-09-17T08:57:35.302Z,4.18
2017-09-17T09:00:03.926Z,3.25
2017-09-17T09:02:31.554Z,3.30
2017-09-17T09:04:59.133Z,3.35
2017-09-17T09:07:27.729Z,4.05
2017-09-17T09:09:55.388Z,4.20
2017-09-17T09:12:22.973Z,3.72
2017-09-17T09:14:50.554Z,4.10
2017-09-17T09:17:18.175Z,3.78
2017-09-17T09:19:45.759Z,4.18
2017-09-17T09:22:13.415Z,3.80
2017-09-17T09:24:41.050Z,4.18
2017-09-17T09:27:08.634Z,4.20
2017-09-17T09:29:36.220Z,3.47
2017-09-17T09:32:03.842Z,4.07
2017-09-17T09:34:31.422Z,4.45
2017-09-17T09:36:59.043Z,4.50
2017-09-17T09:39:26.886Z,3.92
2017-09-17T09:41:55.246Z,4.18
2017-09-17T09:44:22.830Z,4.37
2017-09-17T09:46:50.461Z,4.68
2017-09-17T09:49:18.045Z,3.60
2017-09-17T09:51:46.400Z,4.18
2017-09-17T09:54:14.086Z,4.37
2017-09-17T09:56:42.431Z,3.92
2017-09-17T09:59:10.022Z,3.40
2017-09-17T10:01:37.637Z,3.35
2017-09-17T10:04:05.218Z,3.15
2017-09-17T10:06:32.808Z,3.20
2017-09-17T10:09:00.626Z,3.78
2017-09-17T10:11:28.212Z,3.30
2017-09-17T10:13:56.563Z,2.87
2017-09-17T10:16:24.180Z,2.92
2017-09-17T10:18:51.813Z,3.03
2017-09-17T10:21:20.161Z,2.83
2017-09-17T10:23:47.744Z,2.95
2017-09-17T10:26:16.118Z,2.00
2017-09-17T10:28:44.475Z,2.22
2017-09-17T10:31:12.063Z,2.65
2017-09-17T10:33:39.694Z,2.92
2017-09-17T10:36:07.282Z,1.95
2017-09-17T10:38:34.866Z,1.90
2017-09-17T10:41:02.694Z,1.50
2017-09-17T10:43:31.045Z,2.22
2017-09-17T10:45:58.634Z,2.50
2017-09-17T10:48:27.190Z,2.25
2017-09-17T10:50:54.776Z,1.92
2017-09-17T10:53:22.366Z,1.70
2017-09-17T10:55:49.998Z,1.73
2017-09-17T10:58:17.585Z,2.35
2017-09-17T11:00:45.178Z,1.70
2017-09-17T11:03:14.418Z,1.83
2017-09-17T11:05:42.006Z,1.73
2017-09-17T11:08:09.618Z,2.22
2017-09-17T11:10:37.410Z,1.30
2017-09-17T11:13:04.993Z,1.62
2017-09-17T11:15:32.585Z,1.10
2017-09-17T11:18:00.199Z,1.80
2017-09-17T11:20:27.786Z,1.90
2017-09-17T11:22:55.554Z,1.80
2017-09-17T11:25:23.143Z,1.17
2017-09-17T11:27:51.489Z,2.13
2017-09-17T11:30:19.098Z,1.43
2017-09-17T11:32:46.694Z,1.30
2017-09-17T11:35:14.378Z,1.73
2017-09-17T11:37:41.981Z,1.70
2017-09-17T11:40:09.578Z,2.20
2017-09-17T11:42:37.158Z,2.13
2017-09-17T11:45:05.047Z,2.50
2017-09-17T11:47:33.398Z,1.70
2017-09-17T11:50:01.003Z,1.60
2017-09-17T11:52:28.615Z,1.50
2017-09-17T11:54:56.197Z,1.80
2017-09-17T11:57:24.546Z,2.80
2017-09-17T11:59:52.149Z,1.70
2017-09-17T12:02:19.755Z,1.80
2017-09-17T12:04:47.394Z,2.00
2017-09-17T12:07:15.060Z,2.27
2017-09-17T12:09:42.646Z,2.63
2017-09-17T12:12:10.260Z,2.13
2017-09-17T12:14:37.843Z,1.93
2017-09-17T12:17:05.431Z,1.30
2017-09-17T12:19:33.036Z,1.60
2017-09-17T12:22:00.621Z,1.47
2017-09-17T12:24:28.256Z,1.57
2017-09-17T12:26:55.834Z,1.40
2017-09-17T12:29:23.418Z,1.50
2017-09-17T12:31:51.041Z,1.60
2017-09-17T12:34:18.617Z,1.50
2017-09-17T12:36:46.198Z,1.73
2017-09-17T12:39:13.903Z,1.67
2017-09-17T12:44:18.218Z,1.87
2017-09-17T12:46:46.568Z,2.97
2017-09-17T12:49:14.146Z,1.70
2017-09-17T12:51:42.541Z,1.70
2017-09-17T12:54:10.128Z,1.70
2017-09-17T12:56:37.792Z,1.73
2017-09-17T13:01:42.127Z,1.70
2017-09-17T13:04:09.733Z,1.50
2017-09-17T13:06:38.125Z,1.60
2017-09-17T13:09:05.702Z,1.47
2017-09-17T13:11:33.287Z,1.33
2017-09-17T13:14:00.908Z,1.67
2017-09-17T13:16:28.505Z,1.67
2017-09-17T13:18:56.084Z,1.53
2017-09-17T13:21:23.859Z,2.70
2017-09-17T13:23:52.214Z,1.43
2017-09-17T13:26:19.794Z,1.47
2017-09-17T13:28:52.369Z,1.37
2017-09-17T13:31:19.946Z,1.40
2017-09-17T13:33:48.289Z,1.77
2017-09-17T13:36:15.890Z,1.73
2017-09-17T13:38:43.474Z,1.50
2017-09-17T13:41:11.126Z,1.50
2017-09-17T13:43:38.706Z,1.17
2017-09-17T13:46:06.285Z,1.60
2017-09-17T13:48:33.922Z,1.77
2017-09-17T13:51:01.518Z,1.40
2017-09-17T13:53:29.100Z,1.27
2017-09-17T13:55:56.954Z,1.73
2017-09-17T13:58:25.303Z,1.97
2017-09-17T14:00:52.882Z,1.70
2017-09-17T14:03:35.266Z,1.27
2017-09-17T14:06:16.702Z,1.23
2017-09-17T14:08:47.293Z,1.43
2017-09-17T14:11:14.869Z,1.40
2017-09-17T14:13:43.218Z,1.40
2017-09-17T14:16:10.853Z,1.50
2017-09-17T14:18:38.433Z,1.40
2017-09-17T14:21:06.013Z,1.43
2017-09-17T14:23:34.599Z,1.47
2017-09-17T14:26:02.190Z,1.90
2017-09-17T14:28:29.774Z,1.50
2017-09-17T14:30:57.582Z,1.57
2017-09-17T14:33:25.935Z,1.57
2017-09-17T14:35:53.522Z,1.50
2017-09-17T14:38:21.913Z,1.30
2017-09-17T14:40:49.510Z,1.60
2017-09-17T14:43:17.712Z,1.97
2017-09-17T14:45:45.317Z,2.30
2017-09-17T14:48:12.899Z,1.47
2017-09-17T14:50:40.486Z,2.10
2017-09-17T14:53:08.366Z,1.70
2017-09-17T14:55:36.713Z,2.70
2017-09-17T14:58:04.298Z,1.60
2017-09-17T15:00:32.713Z,2.00
2017-09-17T15:03:00.303Z,1.70
2017-09-17T15:05:27.886Z,2.03
2017-09-17T15:07:56.074Z,1.87
2017-09-17T15:10:23.679Z,1.80
2017-09-17T15:12:51.298Z,2.20
2017-09-17T15:15:19.686Z,2.50
2017-09-17T15:17:47.270Z,1.97
2017-09-17T15:20:14.850Z,1.77
2017-09-17T15:22:42.482Z,2.37
2017-09-17T15:25:10.066Z,2.17
2017-09-17T15:27:37.717Z,2.40
2017-09-17T15:30:06.147Z,2.40
2017-09-17T15:32:34.498Z,2.73
2017-09-17T15:35:02.082Z,3.00
2017-09-17T15:37:30.474Z,2.67
2017-09-17T15:39:58.054Z,2.97
2017-09-17T15:42:25.639Z,2.70
2017-09-17T15:44:53.543Z,3.33
2017-09-17T15:47:21.894Z,4.87
2017-09-17T15:49:49.473Z,3.70
2017-09-17T15:52:17.850Z,4.33
2017-09-17T15:54:46.191Z,3.53
2017-09-17T15:57:13.774Z,3.00
2017-09-17T15:59:41.401Z,2.40
2017-09-17T16:02:08.983Z,2.67
2017-09-17T16:04:36.570Z,2.37
2017-09-17T16:07:04.214Z,2.83
2017-09-17T16:09:31.791Z,2.93
2017-09-17T16:12:00.134Z,2.87
2017-09-17T16:14:27.767Z,3.40
2017-09-17T16:16:55.351Z,2.17
2017-09-17T16:19:22.944Z,1.93
2017-09-17T16:21:51.513Z,2.30
2017-09-17T16:24:19.862Z,2.10
2017-09-17T16:26:47.446Z,1.60
2017-09-17T16:29:16.042Z,1.48
2017-09-17T16:31:44.395Z,1.80
2017-09-17T16:34:11.970Z,2.73
2017-09-17T16:36:40.346Z,2.12
2017-09-17T16:39:08.698Z,1.80
2017-09-17T16:41:36.318Z,1.87
2017-09-17T16:44:03.910Z,2.20
2017-09-17T16:46:31.502Z,1.98
2017-09-17T16:49:00.086Z,1.95
2017-09-17T16:51:28.438Z,2.10
2017-09-17T16:53:56.022Z,2.90
2017-09-17T16:56:24.426Z,2.85
2017-09-17T16:58:52.014Z,2.53
2017-09-17T17:01:19.606Z,2.45
2017-09-17T17:03:48.201Z,3.17
2017-09-17T17:06:16.554Z,2.28
2017-09-17T17:08:44.138Z,2.20
2017-09-17T17:11:12.510Z,3.25
2017-09-17T17:13:40.862Z,2.72
2017-09-17T17:16:08.486Z,2.80
2017-09-17T17:18:36.068Z,3.00
2017-09-17T17:21:03.650Z,4.45
2017-09-17T17:23:31.376Z,3.92
2017-09-17T17:25:59.722Z,4.53
2017-09-17T17:28:27.306Z,3.33
2017-09-17T17:30:55.026Z,2.62
2017-09-17T17:33:23.370Z,3.10
2017-09-17T17:35:50.951Z,2.35
2017-09-17T17:38:18.579Z,1.90
2017-09-17T17:40:46.921Z,2.17
2017-09-17T17:43:14.553Z,3.25
2017-09-17T17:45:42.934Z,2.72
2017-09-17T17:48:11.282Z,3.22
2017-09-17T17:50:39.074Z,2.28
2017-09-17T17:53:07.427Z,3.17
2017-09-17T17:55:35.109Z,2.92
2017-09-17T17:58:03.594Z,2.92
2017-09-17T18:00:31.965Z,3.15
2017-09-17T18:03:00.311Z,2.53
2017-09-17T18:05:28.055Z,3.15
2017-09-17T18:07:55.661Z,2.90
2017-09-17T18:10:24.030Z,3.10
2017-09-17T18:12:52.018Z,4.45
2017-09-17T18:15:20.382Z,2.80
2017-09-17T18:17:48.755Z,4.18
2017-09-17T18:20:17.250Z,2.75
2017-09-17T18:22:45.629Z,2.85
2017-09-17T18:25:13.974Z,3.60
2017-09-17T18:27:42.392Z,3.10
2017-09-17T18:30:10.042Z,2.62
2017-09-17T18:32:38.517Z,7.12
2017-09-17T18:35:06.894Z,8.05
2017-09-17T18:37:35.250Z,6.40
2017-09-17T18:40:02.926Z,4.25
2017-09-17T18:42:31.382Z,3.72
2017-09-17T18:44:58.970Z,3.22
2017-09-17T18:47:27.542Z,2.90
2017-09-17T18:49:55.923Z,3.20
2017-09-17T18:52:24.277Z,2.65
2017-09-17T18:54:51.910Z,2.72
2017-09-17T18:57:19.535Z,3.30
2017-09-17T18:59:47.124Z,2.60
2017-09-17T19:02:14.750Z,2.70
2017-09-17T19:04:42.342Z,3.10
2017-09-17T19:07:10.039Z,2.80
2017-09-17T19:09:37.626Z,2.35
2017-09-17T19:12:05.977Z,3.05
2017-09-17T19:14:33.615Z,2.70
2017-09-17T19:17:01.198Z,2.95
2017-09-17T19:19:28.790Z,2.75
2017-09-17T19:21:56.411Z,2.67
2017-09-17T19:24:24.171Z,2.60
2017-09-17T19:26:51.757Z,3.10
2017-09-17T19:29:20.129Z,2.83
2017-09-17T19:31:48.474Z,2.80
2017-09-17T19:34:16.059Z,3.15
2017-09-17T19:36:43.686Z,3.12
2017-09-17T19:39:11.262Z,4.12
2017-09-17T19:41:38.844Z,4.50
2017-09-17T19:44:07.222Z,3.12
2017-09-17T19:46:35.588Z,3.62
2017-09-17T19:49:04.182Z,4.43
2017-09-17T19:51:32.563Z,2.95
2017-09-17T19:54:00.937Z,2.83
2017-09-17T19:56:29.451Z,5.20
2017-09-17T19:58:57.083Z,4.10
2017-09-17T20:01:25.667Z,4.72
2017-09-17T20:03:54.014Z,3.03
2017-09-17T20:06:21.595Z,2.95
2017-09-17T20:08:50.006Z,2.92
2017-09-17T20:11:17.590Z,3.40
2017-09-17T20:13:45.174Z,2.83
2017-09-17T20:16:12.846Z,4.97
2017-09-17T20:18:41.198Z,4.80
2017-09-17T20:21:08.890Z,5.57
2017-09-17T20:23:37.266Z,5.25
2017-09-17T20:26:05.642Z,3.83
2017-09-17T20:28:33.991Z,3.87
2017-09-17T20:31:01.686Z,6.10
2017-09-17T20:33:30.038Z,11.60
2017-09-17T20:35:57.713Z,3.80
2017-09-17T20:38:26.082Z,4.05
2017-09-17T20:40:54.474Z,4.15
2017-09-17T20:43:22.830Z,4.00
2017-09-17T20:45:50.442Z,3.90
2017-09-17T20:48:18.022Z,3.65
2017-09-17T20:50:45.627Z,4.10
2017-09-17T20:53:14.201Z,4.55
2017-09-17T20:55:42.591Z,4.95
2017-09-17T20:58:10.970Z,3.80
2017-09-17T21:00:39.437Z,3.30
2017-09-17T21:03:07.822Z,4.07
2017-09-17T21:05:36.170Z,4.12
2017-09-17T21:08:03.863Z,3.97
2017-09-17T21:10:32.214Z,3.70
2017-09-17T21:12:59.831Z,4.00
2017-09-17T21:15:27.470Z,4.00
2017-09-17T21:17:55.055Z,3.75
2017-09-17T21:20:22.642Z,3.75
2017-09-17T21:22:50.278Z,3.62
2017-09-17T21:25:17.857Z,4.43
2017-09-17T21:27:45.439Z,3.95
2017-09-17T21:30:13.038Z,5.12
2017-09-17T21:32:40.626Z,3.75
2017-09-17T21:35:08.330Z,7.82
2017-09-17T21:37:36.684Z,6.37
2017-09-17T21:40:04.271Z,4.55
2017-09-17T21:42:32.742Z,4.32
2017-09-17T21:45:01.125Z,4.80
2017-09-17T21:47:29.498Z,4.00
2017-09-17T21:49:57.885Z,3.92
2017-09-17T21:52:25.538Z,4.82
2017-09-17T21:54:53.894Z,3.85
2017-09-17T21:57:21.674Z,4.00
2017-09-17T21:59:50.058Z,3.80
2017-09-17T22:02:18.406Z,3.72
2017-09-17T22:04:46.198Z,4.25
2017-09-17T22:07:13.794Z,3.87
2017-09-17T22:09:41.382Z,3.67
2017-09-17T22:12:09.022Z,4.20
2017-09-17T22:14:36.606Z,4.55
2017-09-17T22:17:04.186Z,7.30
2017-09-17T22:19:32.778Z,10.93
2017-09-17T22:22:00.433Z,4.10
2017-09-17T22:24:28.805Z,3.70
2017-09-17T22:26:57.177Z,3.42
2017-09-17T22:29:25.570Z,3.97
